createdAt,value
2017-08-21T00:01:24.588Z,5.77
2017-08-21T00:03:52.138Z,6.13
2017-08-21T00:06:19.641Z,6.78
2017-08-21T00:08:47.172Z,6.17
2017-08-21T00:11:15.601Z,5.68
2017-08-21T00:13:43.130Z,6.50
2017-08-21T00:16:10.679Z,6.77
2017-08-21T00:18:38.188Z,6.57
2017-08-21T00:21:05.732Z,6.40
2017-08-21T00:23:33.246Z,6.97
2017-08-21T00:26:00.796Z,5.82
2017-08-21T00:28:28.313Z,5.45
2017-08-21T00:30:55.827Z,6.57
2017-08-21T00:33:23.364Z,5.60
2017-08-21T00:35:50.866Z,5.90
2017-08-21T00:38:18.407Z,6.53
2017-08-21T00:40:46.411Z,6.13
2017-08-21T00:43:14.516Z,6.20
2017-08-21T00:45:42.038Z,5.87
2017-08-21T00:48:09.544Z,6.20
2017-08-21T00:50:37.091Z,6.18
2017-08-21T00:53:04.619Z,6.93
2017-08-21T00:55:32.168Z,6.55
2017-08-21T00:57:59.692Z,6.20
2017-08-21T01:00:27.255Z,5.50
2017-08-21T01:02:54.771Z,6.40
2017-08-21T01:05:22.310Z,5.90
2017-08-21T01:07:49.846Z,6.47
2017-08-21T01:10:17.351Z,6.57
2017-08-21T01:12:44.915Z,6.40
2017-08-21T01:15:12.441Z,6.07
2017-08-21T01:17:39.980Z,6.43
2017-08-21T01:20:07.518Z,5.63
2017-08-21T01:22:35.055Z,6.67
2017-08-21T01:25:02.569Z,5.85
2017-08-21T01:27:30.111Z,6.05
2017-08-21T01:29:57.608Z,5.77
2017-08-21T01:32:30.517Z,5.50
2017-08-21T01:34:58.029Z,5.85
2017-08-21T01:37:25.540Z,6.57
2017-08-21T01:39:53.076Z,5.62
2017-08-21T01:42:20.603Z,5.43
2017-08-21T01:44:48.147Z,5.97
2017-08-21T01:47:16.811Z,5.95
2017-08-21T01:49:45.443Z,6.27
2017-08-21T01:52:12.953Z,5.78
2017-08-21T01:54:40.472Z,6.37
2017-08-21T01:57:08.014Z,6.05
2017-08-21T01:59:35.522Z,5.85
2017-08-21T02:02:03.053Z,5.93
2017-08-21T02:04:30.561Z,6.10
2017-08-21T02:06:58.219Z,6.50
2017-08-21T02:09:25.767Z,6.65
2017-08-21T02:11:53.291Z,6.62
2017-08-21T02:14:20.829Z,6.80
2017-08-21T02:16:48.333Z,7.37
2017-08-21T02:19:16.863Z,6.85
2017-08-21T02:21:45.372Z,7.07
2017-08-21T02:24:12.933Z,7.55
2017-08-21T02:26:40.446Z,6.85
2017-08-21T02:29:07.958Z,7.87
2017-08-21T02:31:35.477Z,6.70
2017-08-21T02:34:02.982Z,6.85
2017-08-21T02:36:30.520Z,6.80
2017-08-21T02:38:58.070Z,7.40
2017-08-21T02:41:25.630Z,7.60
2017-08-21T02:43:53.146Z,6.00
2017-08-21T02:46:20.663Z,7.20
2017-08-21T02:48:48.199Z,6.53
2017-08-21T02:51:16.998Z,6.75
2017-08-21T02:53:45.266Z,7.20
2017-08-21T02:56:12.791Z,6.95
2017-08-21T02:58:40.321Z,6.37
2017-08-21T03:01:07.864Z,6.18
2017-08-21T03:03:35.385Z,6.37
2017-08-21T03:06:02.936Z,7.18
2017-08-21T03:08:30.461Z,8.05
2017-08-21T03:10:58.001Z,7.85
2017-08-21T03:13:25.553Z,7.28
2017-08-21T03:15:53.094Z,7.45
2017-08-21T03:18:20.638Z,6.50
2017-08-21T03:20:48.145Z,6.50
2017-08-21T03:23:16.640Z,7.22
2017-08-21T03:25:44.569Z,6.70
2017-08-21T03:28:12.092Z,7.97
2017-08-21T03:30:39.626Z,7.03
2017-08-21T03:33:07.155Z,7.82
2017-08-21T03:35:34.732Z,7.90
2017-08-21T03:38:02.264Z,9.82
2017-08-21T03:40:29.794Z,7.60
2017-08-21T03:42:57.344Z,7.68
2017-08-21T03:45:24.893Z,8.85
2017-08-21T03:47:52.439Z,8.50
2017-08-21T03:50:19.983Z,8.13
2017-08-21T03:52:47.545Z,8.02
2017-08-21T03:55:15.056Z,8.80
2017-08-21T03:57:42.580Z,8.15
2017-08-21T04:00:10.121Z,8.57
2017-08-21T04:02:37.647Z,8.38
2017-08-21T04:05:05.184Z,7.85
2017-08-21T04:07:32.722Z,8.05
2017-08-21T04:10:00.260Z,8.82
2017-08-21T04:12:27.795Z,9.10
2017-08-21T04:14:55.310Z,8.13
2017-08-21T04:17:22.849Z,7.55
2017-08-21T04:19:50.376Z,7.95
2017-08-21T04:22:17.932Z,8.80
2017-08-21T04:24:46.148Z,8.43
2017-08-21T04:27:13.707Z,9.90
2017-08-21T04:29:41.235Z,9.70
2017-08-21T04:32:08.764Z,9.60
2017-08-21T04:34:36.315Z,10.65
2017-08-21T04:37:03.831Z,8.60
2017-08-21T04:39:31.383Z,8.40
2017-08-21T04:41:58.897Z,9.27
2017-08-21T04:44:26.462Z,9.57
2017-08-21T04:46:53.978Z,9.48
2017-08-21T04:49:21.507Z,10.77
2017-08-21T04:51:49.054Z,11.50
2017-08-21T04:54:16.575Z,9.75
2017-08-21T04:56:44.680Z,9.52
2017-08-21T04:59:12.206Z,9.88
2017-08-21T05:01:39.756Z,10.55
2017-08-21T05:04:07.268Z,10.38
2017-08-21T05:06:34.788Z,10.68
2017-08-21T05:09:02.342Z,10.25
2017-08-21T05:11:29.854Z,11.18
2017-08-21T05:13:57.390Z,9.45
2017-08-21T05:16:24.937Z,10.70
2017-08-21T05:18:52.479Z,10.38
2017-08-21T05:21:20.007Z,11.60
2017-08-21T05:23:47.522Z,11.73
2017-08-21T05:26:15.075Z,10.98
2017-08-21T05:28:42.588Z,8.93
2017-08-21T05:31:10.121Z,10.18
2017-08-21T05:33:37.643Z,11.15
2017-08-21T05:36:05.199Z,10.30
2017-08-21T05:38:32.732Z,10.88
2017-08-21T05:41:00.267Z,12.18
2017-08-21T05:43:27.824Z,10.25
2017-08-21T05:45:55.341Z,10.43
2017-08-21T05:48:22.891Z,9.88
2017-08-21T05:50:50.414Z,9.70
2017-08-21T05:53:17.959Z,10.57
2017-08-21T05:55:46.742Z,9.85
2017-08-21T05:58:14.688Z,9.87
2017-08-21T06:00:42.247Z,10.80
2017-08-21T06:03:09.779Z,10.33
2017-08-21T06:05:37.301Z,9.60
2017-08-21T06:08:04.817Z,11.20
2017-08-21T06:10:32.392Z,10.50
2017-08-21T06:12:59.911Z,10.68
2017-08-21T06:15:27.441Z,10.67
2017-08-21T06:17:54.980Z,10.20
2017-08-21T06:20:22.488Z,10.90
2017-08-21T06:22:50.028Z,11.17
2017-08-21T06:25:17.549Z,10.93
2017-08-21T06:27:45.503Z,10.43
2017-08-21T06:30:13.129Z,10.50
2017-08-21T06:32:40.639Z,8.80
2017-08-21T06:35:08.191Z,10.27
2017-08-21T06:37:35.716Z,9.67
2017-08-21T06:40:03.256Z,10.07
2017-08-21T06:42:30.788Z,9.10
2017-08-21T06:44:58.327Z,9.60
2017-08-21T06:47:25.842Z,8.60
2017-08-21T06:49:53.384Z,7.90
2017-08-21T06:52:20.899Z,9.23
2017-08-21T06:54:48.429Z,9.40
2017-08-21T06:57:16.679Z,8.40
2017-08-21T06:59:44.678Z,7.83
2017-08-21T07:02:12.209Z,7.60
2017-08-21T07:04:39.726Z,7.97
2017-08-21T07:07:07.255Z,7.90
2017-08-21T07:09:34.763Z,7.03
2017-08-21T07:12:02.299Z,7.40
2017-08-21T07:14:29.823Z,7.30
2017-08-21T07:16:57.334Z,7.20
2017-08-21T07:19:24.872Z,7.03
2017-08-21T07:21:52.394Z,6.03
2017-08-21T07:24:20.947Z,6.90
2017-08-21T07:26:48.462Z,4.63
2017-08-21T07:29:16.929Z,5.00
2017-08-21T07:31:45.438Z,5.80
2017-08-21T07:34:12.999Z,5.80
2017-08-21T07:36:40.551Z,6.73
2017-08-21T07:39:08.100Z,4.43
2017-08-21T07:41:35.637Z,4.47
2017-08-21T07:44:03.137Z,4.83
2017-08-21T07:46:30.698Z,5.13
2017-08-21T07:48:58.208Z,3.97
2017-08-21T07:51:25.746Z,4.80
2017-08-21T07:53:53.267Z,4.43
2017-08-21T07:56:20.832Z,5.13
2017-08-21T07:58:48.717Z,4.07
2017-08-21T08:01:16.700Z,4.53
2017-08-21T08:03:44.679Z,3.47
2017-08-21T08:06:12.191Z,3.77
2017-08-21T08:08:39.723Z,4.60
2017-08-21T08:11:07.294Z,5.40
2017-08-21T08:13:34.843Z,5.13
2017-08-21T08:16:02.341Z,5.10
2017-08-21T08:18:29.867Z,4.93
2017-08-21T08:20:57.370Z,4.93
2017-08-21T08:23:24.892Z,4.47
2017-08-21T08:25:52.458Z,4.30
2017-08-21T08:28:19.999Z,3.70
2017-08-21T08:30:47.551Z,4.13
2017-08-21T08:33:15.950Z,3.83
2017-08-21T08:35:43.476Z,4.10
2017-08-21T08:38:10.990Z,3.80
2017-08-21T08:40:38.535Z,3.50
2017-08-21T08:43:06.056Z,3.00
2017-08-21T08:45:33.581Z,2.60
2017-08-21T08:48:01.102Z,3.23
2017-08-21T08:50:28.614Z,2.67
2017-08-21T08:52:56.145Z,3.37
2017-08-21T08:55:23.672Z,3.33
2017-08-21T08:57:51.206Z,3.77
2017-08-21T09:00:18.763Z,3.17
2017-08-21T09:02:46.945Z,2.70
2017-08-21T09:05:15.579Z,2.90
2017-08-21T09:07:43.085Z,2.77
2017-08-21T09:10:10.626Z,2.60
2017-08-21T09:12:38.142Z,3.10
2017-08-21T09:15:05.667Z,2.57
2017-08-21T09:17:33.208Z,2.80
2017-08-21T09:20:00.743Z,3.10
2017-08-21T09:22:28.300Z,2.90
2017-08-21T09:24:55.820Z,2.93
2017-08-21T09:27:23.341Z,2.80
2017-08-21T09:29:50.853Z,2.73
2017-08-21T09:32:18.399Z,2.60
2017-08-21T09:34:47.214Z,2.93
2017-08-21T09:37:14.777Z,3.50
2017-08-21T09:39:42.348Z,2.77
2017-08-21T09:42:09.861Z,2.70
2017-08-21T09:44:37.384Z,3.20
2017-08-21T09:47:04.910Z,3.33
2017-08-21T09:49:32.435Z,2.50
2017-08-21T09:51:59.933Z,3.07
2017-08-21T09:54:27.445Z,2.43
2017-08-21T09:56:54.983Z,2.80
2017-08-21T09:59:22.499Z,2.27
2017-08-21T10:01:50.050Z,2.30
2017-08-21T10:04:17.569Z,3.10
2017-08-21T10:06:46.019Z,3.43
2017-08-21T10:09:13.541Z,3.30
2017-08-21T10:11:41.050Z,3.63
2017-08-21T10:14:08.583Z,3.10
2017-08-21T10:16:36.116Z,3.10
2017-08-21T10:19:03.646Z,2.20
2017-08-21T10:21:31.167Z,2.03
2017-08-21T10:23:58.722Z,1.90
2017-08-21T10:26:26.309Z,1.60
2017-08-21T10:28:53.923Z,1.90
2017-08-21T10:31:21.473Z,2.00
2017-08-21T10:33:49.140Z,1.70
2017-08-21T10:36:16.733Z,1.83
2017-08-21T10:38:44.726Z,2.70
2017-08-21T10:41:12.267Z,1.90
2017-08-21T10:43:39.783Z,1.80
2017-08-21T10:46:07.308Z,1.70
2017-08-21T10:48:34.813Z,1.70
2017-08-21T10:51:02.327Z,2.10
2017-08-21T10:53:29.869Z,2.13
2017-08-21T10:55:57.378Z,1.80
2017-08-21T10:58:24.904Z,1.90
2017-08-21T11:00:52.401Z,2.33
2017-08-21T11:03:19.917Z,2.30
2017-08-21T11:05:47.417Z,1.77
2017-08-21T11:08:15.782Z,1.97
2017-08-21T11:10:43.278Z,2.17
2017-08-21T11:13:10.787Z,1.70
2017-08-21T11:15:38.316Z,1.60
2017-08-21T11:18:05.835Z,2.00
2017-08-21T11:20:33.391Z,1.90
2017-08-21T11:23:00.890Z,1.47
2017-08-21T11:25:28.405Z,2.20
2017-08-21T11:27:55.907Z,1.60
2017-08-21T11:30:23.456Z,1.93
2017-08-21T11:32:50.970Z,1.90
2017-08-21T11:35:18.786Z,2.07
2017-08-21T11:37:46.796Z,2.03
2017-08-21T11:40:14.926Z,1.70
2017-08-21T11:42:42.452Z,1.90
2017-08-21T11:45:09.963Z,2.23
2017-08-21T11:47:37.479Z,2.00
2017-08-21T11:50:04.999Z,2.70
2017-08-21T11:52:32.538Z,1.90
2017-08-21T11:55:00.072Z,2.10
2017-08-21T11:57:27.618Z,2.20
2017-08-21T11:59:55.110Z,2.03
2017-08-21T12:02:22.609Z,2.40
2017-08-21T12:04:50.351Z,2.20
2017-08-21T12:07:17.867Z,2.20
2017-08-21T12:09:45.408Z,2.43
2017-08-21T12:12:12.935Z,2.07
2017-08-21T12:14:40.468Z,1.90
2017-08-21T12:17:07.969Z,2.13
2017-08-21T12:19:35.493Z,2.30
2017-08-21T12:22:03.032Z,2.37
2017-08-21T12:24:30.540Z,1.97
2017-08-21T12:26:58.067Z,2.10
2017-08-21T12:29:25.562Z,2.40
2017-08-21T12:31:53.105Z,2.63
2017-08-21T12:34:20.620Z,2.47
2017-08-21T12:36:48.144Z,2.40
2017-08-21T12:39:16.809Z,2.57
2017-08-21T12:41:45.026Z,2.50
2017-08-21T12:44:12.713Z,2.17
2017-08-21T12:46:40.229Z,1.97
2017-08-21T12:49:07.777Z,2.03
2017-08-21T12:51:35.274Z,2.37
2017-08-21T12:54:02.808Z,2.27
2017-08-21T12:56:30.335Z,2.23
2017-08-21T12:58:57.851Z,2.67
2017-08-21T13:01:25.370Z,2.30
2017-08-21T13:03:52.887Z,2.70
2017-08-21T13:06:20.420Z,2.87
2017-08-21T13:08:47.942Z,3.10
2017-08-21T13:11:15.470Z,2.80
2017-08-21T13:13:42.975Z,2.70
2017-08-21T13:16:10.515Z,2.77
2017-08-21T13:18:38.028Z,2.50
2017-08-21T13:21:05.534Z,2.70
2017-08-21T13:23:33.087Z,2.80
2017-08-21T13:26:00.602Z,2.63
2017-08-21T13:28:28.169Z,2.73
2017-08-21T13:30:55.680Z,2.90
2017-08-21T13:33:23.206Z,3.07
2017-08-21T13:35:50.735Z,3.20
2017-08-21T13:38:18.449Z,2.60
2017-08-21T13:40:46.640Z,2.70
2017-08-21T13:43:14.936Z,2.73
2017-08-21T13:45:42.461Z,3.07
2017-08-21T13:48:09.972Z,2.27
2017-08-21T13:50:37.512Z,3.47
2017-08-21T13:53:05.028Z,3.33
2017-08-21T13:55:32.948Z,3.00
2017-08-21T13:58:00.459Z,3.20
2017-08-21T14:00:27.998Z,3.00
2017-08-21T14:02:55.509Z,3.00
2017-08-21T14:05:23.034Z,2.87
2017-08-21T14:07:50.567Z,2.80
2017-08-21T14:10:18.091Z,3.80
2017-08-21T14:12:46.448Z,3.70
2017-08-21T14:15:13.948Z,3.73
2017-08-21T14:17:41.480Z,3.60
2017-08-21T14:20:09.041Z,2.60
2017-08-21T14:22:36.583Z,2.87
2017-08-21T14:25:04.121Z,3.10
2017-08-21T14:27:31.652Z,3.10
2017-08-21T14:29:59.191Z,3.50
2017-08-21T14:32:26.709Z,2.97
2017-08-21T14:34:54.238Z,3.10
2017-08-21T14:37:21.743Z,3.23
2017-08-21T14:39:49.299Z,3.47
2017-08-21T14:42:17.217Z,3.43
2017-08-21T14:44:45.827Z,3.17
2017-08-21T14:47:13.336Z,3.00
2017-08-21T14:49:40.828Z,3.83
2017-08-21T14:52:08.339Z,3.07
2017-08-21T14:54:35.847Z,2.97
2017-08-21T14:57:03.415Z,3.10
2017-08-21T14:59:30.925Z,2.90
2017-08-21T15:01:58.454Z,3.43
2017-08-21T15:04:25.959Z,3.10
2017-08-21T15:06:53.478Z,2.90
2017-08-21T15:09:21.005Z,3.40
2017-08-21T15:11:48.534Z,4.03
2017-08-21T15:14:16.915Z,3.47
2017-08-21T15:16:44.950Z,3.40
2017-08-21T15:19:12.486Z,3.57
2017-08-21T15:21:40.007Z,3.60
2017-08-21T15:24:07.540Z,3.20
2017-08-21T15:26:35.125Z,3.33
2017-08-21T15:29:02.654Z,3.70
2017-08-21T15:31:30.459Z,3.40
2017-08-21T15:33:57.968Z,3.60
2017-08-21T15:36:25.488Z,3.57
2017-08-21T15:38:53.009Z,3.53
2017-08-21T15:41:20.572Z,3.70
2017-08-21T15:43:48.083Z,3.13
2017-08-21T15:46:15.948Z,4.10
2017-08-21T15:48:45.709Z,3.70
2017-08-21T15:51:13.264Z,3.50
2017-08-21T15:53:40.762Z,4.13
2017-08-21T15:56:08.286Z,11.50
2017-08-21T15:58:36.084Z,3.70
2017-08-21T16:01:03.630Z,3.77
2017-08-21T16:03:31.134Z,4.03
2017-08-21T16:05:58.657Z,3.70
2017-08-21T16:08:26.199Z,3.43
2017-08-21T16:10:53.741Z,4.00
2017-08-21T16:13:21.262Z,3.73
2017-08-21T16:15:48.766Z,3.43
2017-08-21T16:18:17.167Z,3.30
2017-08-21T16:20:45.398Z,3.73
2017-08-21T16:23:12.919Z,3.70
2017-08-21T16:25:40.418Z,3.53
2017-08-21T16:28:08.286Z,4.00
2017-08-21T16:30:35.815Z,4.17
2017-08-21T16:33:03.335Z,3.80
2017-08-21T16:35:30.868Z,3.83
2017-08-21T16:37:58.416Z,3.83
2017-08-21T16:40:26.011Z,3.83
2017-08-21T16:43:35.260Z,3.50
2017-08-21T16:46:09.127Z,3.83
2017-08-21T16:48:36.741Z,3.67
2017-08-21T16:51:04.367Z,3.67
2017-08-21T16:53:31.983Z,3.63
2017-08-21T16:55:59.582Z,3.60
2017-08-21T16:58:27.171Z,3.87
2017-08-21T17:00:54.818Z,3.73
2017-08-21T17:03:22.411Z,4.03
2017-08-21T17:05:50.018Z,3.40
2017-08-21T17:08:17.649Z,4.07
2017-08-21T17:10:45.224Z,3.90
2017-08-21T17:13:12.847Z,5.07
2017-08-21T17:15:40.474Z,3.67
2017-08-21T17:18:08.159Z,4.50
2017-08-21T17:20:35.876Z,4.37
2017-08-21T17:23:03.495Z,3.70
2017-08-21T17:25:31.120Z,3.57
2017-08-21T17:27:59.616Z,4.70
2017-08-21T17:30:27.275Z,4.20
2017-08-21T17:32:56.025Z,4.17
2017-08-21T17:35:23.656Z,5.10
2017-08-21T17:37:51.271Z,5.00
2017-08-21T17:40:18.922Z,5.10
2017-08-21T17:42:46.767Z,5.17
2017-08-21T17:45:14.322Z,5.07
2017-08-21T17:47:41.902Z,4.43
2017-08-21T17:50:09.545Z,4.63
2017-08-21T17:52:37.238Z,5.03
2017-08-21T17:55:04.814Z,5.20
2017-08-21T17:57:32.435Z,4.27
2017-08-21T18:00:00.036Z,5.33
2017-08-21T18:02:27.586Z,5.57
2017-08-21T18:04:55.250Z,5.20
2017-08-21T18:07:22.867Z,5.03
2017-08-21T18:09:50.471Z,5.83
2017-08-21T18:12:18.069Z,5.00
2017-08-21T18:14:46.234Z,5.20
2017-08-21T18:17:13.834Z,5.23
2017-08-21T18:19:41.462Z,4.80
2017-08-21T18:22:09.055Z,5.03
2017-08-21T18:24:36.668Z,4.93
2017-08-21T18:27:04.299Z,4.97
2017-08-21T18:29:31.961Z,5.03
2017-08-21T18:31:59.625Z,5.17
2017-08-21T18:34:27.223Z,5.20
2017-08-21T18:36:54.876Z,5.80
2017-08-21T18:39:23.303Z,5.80
2017-08-21T18:41:52.231Z,5.40
2017-08-21T18:44:20.691Z,5.50
2017-08-21T18:46:48.351Z,5.23
2017-08-21T18:49:15.997Z,5.93
2017-08-21T18:52:05.398Z,5.47
2017-08-21T18:54:40.506Z,6.10
2017-08-21T18:57:13.780Z,6.10
2017-08-21T18:59:41.354Z,6.27
2017-08-21T19:02:09.108Z,6.23
2017-08-21T19:04:36.660Z,6.30
2017-08-21T19:07:04.198Z,5.40
2017-08-21T19:09:31.879Z,6.10
2017-08-21T19:11:59.445Z,6.83
2017-08-21T19:14:26.972Z,6.20
2017-08-21T19:16:54.495Z,6.77
2017-08-21T19:19:22.005Z,6.83
2017-08-21T19:21:49.545Z,6.97
2017-08-21T19:24:17.055Z,7.53
2017-08-21T19:26:45.079Z,5.97
2017-08-21T19:29:12.627Z,6.93
2017-08-21T19:31:40.146Z,8.17
2017-08-21T19:34:07.687Z,7.60
2017-08-21T19:36:35.201Z,8.13
2017-08-21T19:39:02.711Z,7.53
2017-08-21T19:41:30.255Z,7.27
2017-08-21T19:43:57.767Z,6.80
2017-08-21T19:46:25.286Z,7.73
2017-08-21T19:48:52.795Z,7.80
2017-08-21T19:51:20.310Z,7.47
2017-08-21T19:53:47.877Z,7.00
2017-08-21T19:56:16.290Z,7.10
2017-08-21T19:58:43.834Z,6.40
2017-08-21T20:01:11.342Z,6.30
2017-08-21T20:03:38.880Z,7.30
2017-08-21T20:06:06.406Z,7.30
2017-08-21T20:08:33.931Z,6.53
2017-08-21T20:11:01.460Z,6.23
2017-08-21T20:13:28.981Z,6.40
2017-08-21T20:15:56.520Z,6.20
2017-08-21T20:18:24.032Z,6.40
2017-08-21T20:20:51.567Z,6.10
2017-08-21T20:23:19.083Z,5.70
2017-08-21T20:25:47.798Z,5.87
2017-08-21T20:28:16.545Z,6.43
2017-08-21T20:30:44.058Z,6.53
2017-08-21T20:33:11.590Z,5.70
2017-08-21T20:35:39.132Z,5.97
2017-08-21T20:38:06.668Z,6.60
2017-08-21T20:40:34.214Z,8.00
2017-08-21T20:43:01.743Z,7.90
2017-08-21T20:45:29.478Z,7.60
2017-08-21T20:47:57.021Z,7.27
2017-08-21T20:50:24.546Z,7.70
2017-08-21T20:52:52.069Z,7.33
2017-08-21T20:55:19.628Z,7.40
2017-08-21T20:57:47.197Z,6.97
2017-08-21T21:00:15.144Z,7.27
2017-08-21T21:02:42.778Z,6.90
2017-08-21T21:05:10.310Z,6.60
2017-08-21T21:07:37.853Z,6.47
2017-08-21T21:10:05.390Z,6.90
2017-08-21T21:12:33.103Z,7.30
2017-08-21T21:15:00.617Z,6.37
2017-08-21T21:17:28.161Z,5.80
2017-08-21T21:19:55.676Z,6.57
2017-08-21T21:22:23.177Z,6.43
2017-08-21T21:24:50.711Z,6.13
2017-08-21T21:27:18.213Z,6.60
2017-08-21T21:29:45.739Z,5.60
2017-08-21T21:32:13.247Z,5.60
2017-08-21T21:34:40.766Z,5.43
2017-08-21T21:37:08.275Z,5.10
2017-08-21T21:39:35.794Z,5.37
2017-08-21T21:42:03.310Z,5.77
2017-08-21T21:44:30.819Z,5.50
2017-08-21T21:46:58.363Z,5.53
2017-08-21T21:49:25.862Z,5.70
2017-08-21T21:51:53.389Z,5.53
2017-08-21T21:54:20.885Z,5.10
2017-08-21T21:56:48.447Z,6.37
2017-08-21T21:59:17.065Z,5.07
2017-08-21T22:01:45.196Z,6.03
2017-08-21T22:04:12.738Z,5.70
2017-08-21T22:06:40.245Z,6.20
2017-08-21T22:09:07.769Z,6.23
2017-08-21T22:11:35.287Z,6.57
2017-08-21T22:14:02.814Z,6.50
2017-08-21T22:16:30.323Z,5.80
2017-08-21T22:18:57.866Z,6.10
2017-08-21T22:21:25.387Z,5.40
2017-08-21T22:23:52.907Z,6.07
2017-08-21T22:26:20.431Z,5.30
2017-08-21T22:28:47.959Z,6.47
2017-08-21T22:31:16.087Z,5.57
2017-08-21T22:33:43.605Z,5.20
2017-08-21T22:36:11.156Z,5.33
2017-08-21T22:38:38.666Z,6.00
2017-08-21T22:41:06.167Z,5.80
2017-08-21T22:43:33.696Z,4.97
2017-08-21T22:46:01.201Z,5.30
2017-08-21T22:48:28.752Z,5.33
2017-08-21T22:50:56.259Z,4.63
2017-08-21T22:53:23.783Z,5.10
2017-08-21T22:55:51.288Z,4.43
2017-08-21T22:58:18.801Z,5.10
2017-08-21T23:00:47.199Z,5.43
2017-08-21T23:03:15.195Z,5.10
2017-08-21T23:05:42.710Z,6.30
2017-08-21T23:08:10.213Z,5.73
2017-08-21T23:10:37.737Z,5.20
2017-08-21T23:13:05.247Z,5.43
2017-08-21T23:15:32.883Z,5.30
2017-08-21T23:18:00.382Z,5.90
2017-08-21T23:20:27.907Z,5.40
2017-08-21T23:22:55.481Z,5.73
2017-08-21T23:25:22.993Z,5.27
2017-08-21T23:27:50.527Z,5.93
2017-08-21T23:30:18.046Z,6.10
2017-08-21T23:32:46.578Z,6.20
2017-08-21T23:35:14.082Z,5.77
2017-08-21T23:37:41.614Z,5.40
2017-08-21T23:40:09.109Z,5.07
2017-08-21T23:42:36.626Z,5.47
2017-08-21T23:45:04.176Z,5.50
2017-08-21T23:47:31.670Z,5.00
2017-08-21T23:49:59.204Z,5.10
2017-08-21T23:52:26.720Z,5.23
2017-08-21T23:54:54.238Z,5.47
2017-08-21T23:57:21.751Z,5.50
2017-08-21T23:59:49.300Z,4.77
